Terminal Aerodrome Forecast
Issued by NWS

Home | Current Version | Previous Version | Text Only | Print | Product List | Glossary On
Versions: 1 2 3 4 5 6 7 8 9 10 11 12 13 14 15 16 17 18 19 20 21 22 23 24 25 26 27 28 29 30 31 32 33 34 35 36 37 38 39 40 41 42 43 44 45 46 47 48 49 50
000
FTUS43 KMKX 021737
TAFUES
TAF
KUES 021737Z 0218/0318 27007KT P6SM SCT120
     FM030000 24002KT P6SM SCT200
     FM031000 00000KT 3SM BR SKC
     FM031300 VRB02KT P6SM SKC
     FM031500 21005KT P6SM FEW120=

USA.gov is the U.S. government's official web portal to all federal, state and local government web resources and services.